createdAt,value
2023-01-06T00:00:48.978Z,995.69
2023-01-06T00:01:49.028Z,995.67
2023-01-06T00:02:49.048Z,995.74
2023-01-06T00:03:48.844Z,995.71
2023-01-06T00:04:48.842Z,995.71
2023-01-06T00:05:48.860Z,995.70
2023-01-06T00:06:48.805Z,995.67
2023-01-06T00:07:48.829Z,995.71
2023-01-06T00:08:48.794Z,995.71
2023-01-06T00:09:48.814Z,995.68
2023-01-06T00:10:48.999Z,995.73
2023-01-06T00:11:49.007Z,995.74
2023-01-06T00:12:48.779Z,995.73
2023-01-06T00:13:48.778Z,995.71
2023-01-06T00:14:48.728Z,995.69
2023-01-06T00:15:48.756Z,995.68
2023-01-06T00:16:48.701Z,995.68
2023-01-06T00:17:48.830Z,995.65
2023-01-06T00:18:48.701Z,995.65
2023-01-06T00:19:48.739Z,995.58
2023-01-06T00:20:48.693Z,995.58
2023-01-06T00:21:48.659Z,995.56
2023-01-06T00:22:48.666Z,995.60
2023-01-06T00:23:48.634Z,995.57
2023-01-06T00:24:48.646Z,995.58
2023-01-06T00:25:48.677Z,995.63
2023-01-06T00:26:48.596Z,995.60
2023-01-06T00:27:48.612Z,995.62
2023-01-06T00:28:48.590Z,995.60
2023-01-06T00:29:48.584Z,995.61
2023-01-06T00:30:48.663Z,995.60
2023-01-06T00:31:48.563Z,995.61
2023-01-06T00:32:48.528Z,995.59
2023-01-06T00:33:48.632Z,995.57
2023-01-06T00:34:48.525Z,995.56
2023-01-06T00:35:48.491Z,995.55
2023-01-06T00:36:48.497Z,995.56
2023-01-06T00:37:48.489Z,995.56
2023-01-06T00:38:48.540Z,995.56
2023-01-06T00:39:48.488Z,995.55
2023-01-06T00:40:48.451Z,995.55
2023-01-06T00:41:48.648Z,995.53
2023-01-06T00:42:48.428Z,995.51
2023-01-06T00:43:48.438Z,995.52
2023-01-06T00:44:48.645Z,995.47
2023-01-06T00:45:48.408Z,995.47
2023-01-06T00:46:48.408Z,995.50
2023-01-06T00:47:48.383Z,995.52
2023-01-06T00:49:03.927Z,995.48
2023-01-06T00:49:48.491Z,995.47
2023-01-06T00:50:48.342Z,995.48
2023-01-06T00:51:48.347Z,995.48
2023-01-06T00:52:48.379Z,995.42
2023-01-06T00:53:48.319Z,995.43
2023-01-06T00:54:48.327Z,995.45
2023-01-06T00:55:48.291Z,995.41
2023-01-06T00:56:48.502Z,995.38
2023-01-06T00:57:48.278Z,995.36
2023-01-06T00:58:48.299Z,995.35
2023-01-06T00:59:48.263Z,995.37
2023-01-06T01:00:48.287Z,995.39
2023-01-06T01:01:48.351Z,995.39
2023-01-06T01:02:48.259Z,995.38
2023-01-06T01:03:48.229Z,995.37
2023-01-06T01:04:48.406Z,995.34
2023-01-06T01:05:48.290Z,995.38
2023-01-06T01:06:48.200Z,995.35
2023-01-06T01:07:48.215Z,995.35
2023-01-06T01:08:48.387Z,995.33
2023-01-06T01:09:48.197Z,995.36
2023-01-06T01:10:48.137Z,995.29
2023-01-06T01:11:48.145Z,995.30
2023-01-06T01:12:48.117Z,995.30
2023-01-06T01:13:48.107Z,995.33
2023-01-06T01:14:48.110Z,995.34
2023-01-06T01:15:48.103Z,995.30
2023-01-06T01:16:48.115Z,995.28
2023-01-06T01:17:48.064Z,995.31
2023-01-06T01:18:48.080Z,995.26
2023-01-06T01:19:48.082Z,995.27
2023-01-06T01:20:48.044Z,995.28
2023-01-06T01:21:48.161Z,995.26
2023-01-06T01:22:48.026Z,995.27
2023-01-06T01:23:48.069Z,995.27
2023-01-06T01:24:48.028Z,995.28
2023-01-06T01:25:47.969Z,995.28
2023-01-06T01:26:47.967Z,995.29
2023-01-06T01:27:47.959Z,995.32
2023-01-06T01:28:47.961Z,995.29
2023-01-06T01:29:47.949Z,995.31
2023-01-06T01:30:47.995Z,995.31
2023-01-06T01:31:48.106Z,995.23
2023-01-06T01:32:47.893Z,995.25
2023-01-06T01:33:47.879Z,995.26
2023-01-06T01:34:47.861Z,995.26
2023-01-06T01:35:48.050Z,995.26
2023-01-06T01:36:47.865Z,995.26
2023-01-06T01:37:47.978Z,995.23
2023-01-06T01:38:47.847Z,995.22
2023-01-06T01:39:47.845Z,995.25
2023-01-06T01:40:47.825Z,995.26
2023-01-06T01:41:47.809Z,995.23
2023-01-06T01:42:47.773Z,995.21
2023-01-06T01:43:47.767Z,995.21
2023-01-06T01:44:47.795Z,995.21
2023-01-06T01:45:47.769Z,995.23
2023-01-06T01:46:47.758Z,995.27
2023-01-06T01:47:47.745Z,995.26
2023-01-06T01:48:47.731Z,995.27
2023-01-06T01:49:47.706Z,995.25
2023-01-06T01:50:47.740Z,995.25
2023-01-06T01:51:47.701Z,995.18
2023-01-06T01:52:47.685Z,995.13
2023-01-06T01:53:47.787Z,995.21
2023-01-06T01:54:47.892Z,995.19
2023-01-06T01:55:47.715Z,995.18
2023-01-06T01:56:47.654Z,995.21
2023-01-06T01:57:47.825Z,995.20
2023-01-06T01:58:47.613Z,995.18
2023-01-06T01:59:47.634Z,995.19
2023-01-06T02:00:47.625Z,995.17
2023-01-06T02:01:47.714Z,995.18
2023-01-06T02:02:47.637Z,995.16
2023-01-06T02:03:47.768Z,995.17
2023-01-06T02:04:47.552Z,995.12
2023-01-06T02:05:47.744Z,995.13
2023-01-06T02:06:47.570Z,995.10
2023-01-06T02:07:47.752Z,995.05
2023-01-06T02:08:47.523Z,995.10
2023-01-06T02:09:47.624Z,995.06
2023-01-06T02:10:47.491Z,995.08
2023-01-06T02:11:47.596Z,995.12
2023-01-06T02:12:47.493Z,995.08
2023-01-06T02:13:47.488Z,995.08
2023-01-06T02:14:47.430Z,995.06
2023-01-06T02:15:47.443Z,995.10
2023-01-06T02:16:47.409Z,995.11
2023-01-06T02:17:47.441Z,995.09
2023-01-06T02:18:47.407Z,995.10
2023-01-06T02:19:47.412Z,995.08
2023-01-06T02:20:47.403Z,995.12
2023-01-06T02:21:47.374Z,995.10
2023-01-06T02:22:47.398Z,995.11
2023-01-06T02:23:47.349Z,995.09
2023-01-06T02:24:47.385Z,995.05
2023-01-06T02:25:47.441Z,995.07
2023-01-06T02:26:47.331Z,995.08
2023-01-06T02:27:47.306Z,995.05
2023-01-06T02:28:47.300Z,995.05
2023-01-06T02:29:47.296Z,995.02
2023-01-06T02:30:47.279Z,994.98
2023-01-06T02:31:47.285Z,994.96
2023-01-06T02:32:47.242Z,994.94
2023-01-06T02:33:47.252Z,994.94
2023-01-06T02:34:47.262Z,994.89
2023-01-06T02:35:47.430Z,994.90
2023-01-06T02:36:47.210Z,994.86
2023-01-06T02:37:47.212Z,994.87
2023-01-06T02:38:47.178Z,994.83
2023-01-06T02:39:47.188Z,994.81
2023-01-06T02:40:47.174Z,994.78
2023-01-06T02:41:47.288Z,994.79
2023-01-06T02:42:47.134Z,994.78
2023-01-06T02:43:47.208Z,994.74
2023-01-06T02:44:47.135Z,994.76
2023-01-06T02:45:47.355Z,994.72
2023-01-06T02:46:47.139Z,994.75
2023-01-06T02:47:47.130Z,994.75
2023-01-06T02:48:47.090Z,994.72
2023-01-06T02:49:47.089Z,994.75
2023-01-06T02:50:47.066Z,994.72
2023-01-06T02:51:47.116Z,994.74
2023-01-06T02:52:47.068Z,994.73
2023-01-06T02:53:47.036Z,994.73
2023-01-06T02:54:47.025Z,994.72
2023-01-06T02:55:47.036Z,994.70
2023-01-06T02:56:47.012Z,994.68
2023-01-06T02:57:47.105Z,994.67
2023-01-06T02:58:46.970Z,994.63
2023-01-06T02:59:46.989Z,994.66
2023-01-06T03:00:46.996Z,994.62
2023-01-06T03:01:47.042Z,994.62
2023-01-06T03:02:46.987Z,994.60
2023-01-06T03:03:47.114Z,994.61
2023-01-06T03:04:46.947Z,994.61
2023-01-06T03:05:46.945Z,994.59
2023-01-06T03:06:46.930Z,994.57
2023-01-06T03:07:46.904Z,994.55
2023-01-06T03:08:46.887Z,994.56
2023-01-06T03:09:46.877Z,994.53
2023-01-06T03:10:46.857Z,994.55
2023-01-06T03:11:46.847Z,994.57
2023-01-06T03:12:46.827Z,994.54
2023-01-06T03:13:46.924Z,994.60
2023-01-06T03:14:46.806Z,994.55
2023-01-06T03:15:47.015Z,994.56
2023-01-06T03:16:46.789Z,994.55
2023-01-06T03:17:46.767Z,994.57
2023-01-06T03:18:46.747Z,994.58
2023-01-06T03:19:46.734Z,994.57
2023-01-06T03:20:46.719Z,994.53
2023-01-06T03:21:46.729Z,994.52
2023-01-06T03:22:46.737Z,994.51
2023-01-06T03:23:46.728Z,994.50
2023-01-06T03:24:46.752Z,994.52
2023-01-06T03:25:46.693Z,994.47
2023-01-06T03:26:46.661Z,994.46
2023-01-06T03:27:46.658Z,994.46
2023-01-06T03:28:46.649Z,994.48
2023-01-06T03:29:46.758Z,994.45
2023-01-06T03:30:46.627Z,994.46
2023-01-06T03:31:46.615Z,994.44
2023-01-06T03:32:46.604Z,994.41
2023-01-06T03:33:46.599Z,994.43
2023-01-06T03:34:46.580Z,994.44
2023-01-06T03:35:46.576Z,994.37
2023-01-06T03:36:46.550Z,994.37
2023-01-06T03:37:46.551Z,994.37
2023-01-06T03:38:46.551Z,994.36
2023-01-06T03:39:46.527Z,994.34
2023-01-06T03:40:46.560Z,994.33
2023-01-06T03:41:46.538Z,994.31
2023-01-06T03:42:46.502Z,994.28
2023-01-06T03:43:46.520Z,994.25
2023-01-06T03:44:46.475Z,994.21
2023-01-06T03:45:46.577Z,994.21
2023-01-06T03:46:46.508Z,994.21
2023-01-06T03:47:46.486Z,994.17
2023-01-06T03:48:46.448Z,994.18
2023-01-06T03:49:46.438Z,994.17
2023-01-06T03:50:46.428Z,994.21
2023-01-06T03:51:46.450Z,994.20
2023-01-06T03:52:46.623Z,994.21
2023-01-06T03:53:46.401Z,994.15
2023-01-06T03:54:46.381Z,994.20
2023-01-06T03:55:46.378Z,994.18
2023-01-06T03:56:46.353Z,994.13
2023-01-06T03:57:46.391Z,994.15
2023-01-06T03:58:46.349Z,994.17
2023-01-06T03:59:46.524Z,994.18
2023-01-06T04:00:46.373Z,994.14
2023-01-06T04:01:46.948Z,994.16
2023-01-06T04:02:46.276Z,994.16
2023-01-06T04:03:46.291Z,994.14
2023-01-06T04:04:46.268Z,994.12
2023-01-06T04:05:46.662Z,994.17
2023-01-06T04:06:46.252Z,994.16
2023-01-06T04:07:46.236Z,994.16
2023-01-06T04:08:46.220Z,994.15
2023-01-06T04:09:46.235Z,994.13
2023-01-06T04:10:46.199Z,994.12
2023-01-06T04:11:46.416Z,994.09
2023-01-06T04:12:46.609Z,994.07
2023-01-06T04:13:46.178Z,994.03
2023-01-06T04:14:46.155Z,994.03
2023-01-06T04:15:46.158Z,994.08
2023-01-06T04:16:46.145Z,994.07
2023-01-06T04:17:46.238Z,994.11
2023-01-06T04:18:46.112Z,994.12
2023-01-06T04:19:46.120Z,994.10
2023-01-06T04:20:46.096Z,994.12
2023-01-06T04:21:46.085Z,994.08
2023-01-06T04:22:46.088Z,994.10
2023-01-06T04:23:46.070Z,994.12
2023-01-06T04:24:46.091Z,994.07
2023-01-06T04:25:46.063Z,994.09
2023-01-06T04:26:46.037Z,994.08
2023-01-06T04:27:46.033Z,994.07
2023-01-06T04:28:46.093Z,994.04
2023-01-06T04:29:46.033Z,994.08
2023-01-06T04:30:45.993Z,994.03
2023-01-06T04:31:46.064Z,994.00
2023-01-06T04:32:45.979Z,993.99
2023-01-06T04:33:46.079Z,993.98
2023-01-06T04:34:45.931Z,994.01
2023-01-06T04:35:45.933Z,993.98
2023-01-06T04:36:46.147Z,993.97
2023-01-06T04:37:45.919Z,993.96
2023-01-06T04:38:45.935Z,993.90
2023-01-06T04:39:45.900Z,993.92
2023-01-06T04:40:45.928Z,993.91
2023-01-06T04:41:46.130Z,993.93
2023-01-06T04:42:46.080Z,993.90
2023-01-06T04:43:45.881Z,993.86
2023-01-06T04:44:45.886Z,993.84
2023-01-06T04:45:45.861Z,993.83
2023-01-06T04:46:45.859Z,993.83
2023-01-06T04:47:45.820Z,993.80
2023-01-06T04:48:45.827Z,993.77
2023-01-06T04:49:45.902Z,993.78
2023-01-06T04:50:45.812Z,993.76
2023-01-06T04:51:45.758Z,993.78
2023-01-06T04:52:45.751Z,993.77
2023-01-06T04:53:45.773Z,993.76
2023-01-06T04:54:45.784Z,993.76
2023-01-06T04:55:45.733Z,993.76
2023-01-06T04:56:45.718Z,993.75
2023-01-06T04:57:45.735Z,993.74
2023-01-06T04:58:45.695Z,993.79
2023-01-06T04:59:45.702Z,993.77
2023-01-06T05:00:45.723Z,993.72
2023-01-06T05:01:45.724Z,993.78
2023-01-06T05:02:45.649Z,993.72
2023-01-06T05:03:45.682Z,993.70
2023-01-06T05:04:47.946Z,993.73
2023-01-06T05:05:45.751Z,993.75
2023-01-06T05:06:45.619Z,993.73
2023-01-06T05:07:45.608Z,993.69
2023-01-06T05:08:45.623Z,993.59
2023-01-06T05:09:45.777Z,993.55
2023-01-06T05:10:45.596Z,993.56
2023-01-06T05:11:45.555Z,993.53
2023-01-06T05:12:45.759Z,993.49
2023-01-06T05:13:45.535Z,993.55
2023-01-06T05:14:45.531Z,993.52
2023-01-06T05:15:45.520Z,993.54
2023-01-06T05:16:45.576Z,993.50
2023-01-06T05:17:45.521Z,993.49
2023-01-06T05:18:45.509Z,993.45
2023-01-06T05:19:45.514Z,993.45
2023-01-06T05:20:45.459Z,993.49
2023-01-06T05:21:45.645Z,993.47
2023-01-06T05:22:45.453Z,993.50
2023-01-06T05:23:45.643Z,993.50
2023-01-06T05:24:45.463Z,993.53
2023-01-06T05:25:45.410Z,993.54
2023-01-06T05:26:45.593Z,993.54
2023-01-06T05:27:45.403Z,993.55
2023-01-06T05:28:45.432Z,993.54
2023-01-06T05:29:45.429Z,993.56
2023-01-06T05:30:45.370Z,993.55
2023-01-06T05:31:45.401Z,993.55
2023-01-06T05:32:45.336Z,993.55
2023-01-06T05:33:45.385Z,993.60
2023-01-06T05:34:45.316Z,993.55
2023-01-06T05:35:45.360Z,993.56
2023-01-06T05:36:45.575Z,993.61
2023-01-06T05:37:45.607Z,993.61
2023-01-06T05:38:45.291Z,993.59
2023-01-06T05:39:45.287Z,993.59
2023-01-06T05:40:45.269Z,993.61
2023-01-06T05:41:45.446Z,993.59
2023-01-06T05:42:45.222Z,993.59
2023-01-06T05:43:45.328Z,993.55
2023-01-06T05:44:45.288Z,993.51
2023-01-06T05:45:45.258Z,993.52
2023-01-06T05:46:46.234Z,993.47
2023-01-06T05:47:45.195Z,993.48
2023-01-06T05:48:45.207Z,993.48
2023-01-06T05:49:46.842Z,993.46
2023-01-06T05:50:45.166Z,993.50
2023-01-06T05:51:45.154Z,993.50
2023-01-06T05:52:45.147Z,993.53
2023-01-06T05:53:45.377Z,993.53
2023-01-06T05:54:45.105Z,993.52
2023-01-06T05:55:45.090Z,993.53
2023-01-06T05:56:45.087Z,993.47
2023-01-06T05:57:45.112Z,993.49
2023-01-06T05:58:45.126Z,993.48
2023-01-06T05:59:45.073Z,993.48
2023-01-06T06:00:45.073Z,993.48
2023-01-06T06:01:45.150Z,993.48
2023-01-06T06:02:45.043Z,993.46
2023-01-06T06:03:45.172Z,993.49
2023-01-06T06:04:45.025Z,993.47
2023-01-06T06:05:45.090Z,993.47
2023-01-06T06:06:45.058Z,993.50
2023-01-06T06:07:44.976Z,993.48
2023-01-06T06:08:45.044Z,993.49
2023-01-06T06:09:45.061Z,993.48
2023-01-06T06:10:44.964Z,993.50
2023-01-06T06:11:44.944Z,993.49
2023-01-06T06:12:44.917Z,993.45
2023-01-06T06:13:45.132Z,993.48
2023-01-06T06:14:44.919Z,993.40
2023-01-06T06:15:45.135Z,993.38
2023-01-06T06:16:44.940Z,993.41
2023-01-06T06:17:44.906Z,993.39
2023-01-06T06:18:44.888Z,993.36
2023-01-06T06:19:44.881Z,993.36
2023-01-06T06:20:44.890Z,993.34
2023-01-06T06:21:44.854Z,993.34
2023-01-06T06:22:44.852Z,993.33
2023-01-06T06:23:44.837Z,993.33
2023-01-06T06:24:44.857Z,993.33
2023-01-06T06:25:44.938Z,993.38
2023-01-06T06:26:44.813Z,993.40
2023-01-06T06:27:44.780Z,993.31
2023-01-06T06:28:44.766Z,993.29
2023-01-06T06:29:44.749Z,993.26
2023-01-06T06:30:44.761Z,993.27
2023-01-06T06:31:45.042Z,993.28
2023-01-06T06:32:44.900Z,993.31
2023-01-06T06:33:44.721Z,993.32
2023-01-06T06:34:44.706Z,993.26
2023-01-06T06:35:44.751Z,993.24
2023-01-06T06:36:44.689Z,993.22
2023-01-06T06:37:44.657Z,993.26
2023-01-06T06:38:44.719Z,993.29
2023-01-06T06:39:44.690Z,993.26
2023-01-06T06:40:44.633Z,993.27
2023-01-06T06:41:44.751Z,993.25
2023-01-06T06:42:44.627Z,993.25
2023-01-06T06:43:44.611Z,993.28
2023-01-06T06:44:44.611Z,993.27
2023-01-06T06:45:44.650Z,993.27
2023-01-06T06:46:45.009Z,993.30
2023-01-06T06:47:44.589Z,993.28
2023-01-06T06:48:44.584Z,993.31
2023-01-06T06:49:44.540Z,993.31
2023-01-06T06:50:44.558Z,993.37
2023-01-06T06:51:44.509Z,993.33
2023-01-06T06:52:44.529Z,993.33
2023-01-06T06:53:44.512Z,993.30
2023-01-06T06:54:44.711Z,993.31
2023-01-06T06:55:44.483Z,993.28
2023-01-06T06:56:44.462Z,993.28
2023-01-06T06:57:44.588Z,993.26
2023-01-06T06:58:44.453Z,993.31
2023-01-06T06:59:44.448Z,993.30
2023-01-06T07:00:44.428Z,993.27
2023-01-06T07:01:44.573Z,993.31
2023-01-06T07:02:44.653Z,993.30
2023-01-06T07:03:44.588Z,993.29
2023-01-06T07:04:44.435Z,993.28
2023-01-06T07:05:44.376Z,993.24
2023-01-06T07:06:44.390Z,993.18
2023-01-06T07:07:44.367Z,993.21
2023-01-06T07:08:44.355Z,993.22
2023-01-06T07:09:44.775Z,993.19
2023-01-06T07:10:44.336Z,993.23
2023-01-06T07:11:44.358Z,993.19
2023-01-06T07:12:44.296Z,993.21
2023-01-06T07:13:44.416Z,993.28
2023-01-06T07:14:44.272Z,993.27
2023-01-06T07:15:44.280Z,993.28
2023-01-06T07:16:44.250Z,993.25
2023-01-06T07:17:44.269Z,993.25
2023-01-06T07:18:44.249Z,993.23
2023-01-06T07:19:44.220Z,993.23
2023-01-06T07:20:44.636Z,993.24
2023-01-06T07:21:44.216Z,993.22
2023-01-06T07:22:44.191Z,993.14
2023-01-06T07:23:44.222Z,993.08
2023-01-06T07:24:44.430Z,993.11
2023-01-06T07:25:44.161Z,993.12
2023-01-06T07:26:44.158Z,993.16
2023-01-06T07:27:44.153Z,993.15
2023-01-06T07:28:44.145Z,993.12
2023-01-06T07:29:44.812Z,993.14
2023-01-06T07:30:44.137Z,993.13
2023-01-06T07:31:44.099Z,993.14
2023-01-06T07:32:44.134Z,993.19
2023-01-06T07:33:44.131Z,993.24
2023-01-06T07:34:44.073Z,993.28
2023-01-06T07:35:44.462Z,993.30
2023-01-06T07:36:44.045Z,993.30
2023-01-06T07:37:44.041Z,993.33
2023-01-06T07:38:44.035Z,993.37
2023-01-06T07:39:44.212Z,993.40
2023-01-06T07:40:44.057Z,993.42
2023-01-06T07:41:44.017Z,993.40
2023-01-06T07:42:44.038Z,993.38
2023-01-06T07:43:43.994Z,993.29
2023-01-06T07:44:44.196Z,993.24
2023-01-06T07:45:44.147Z,993.27
2023-01-06T07:46:43.939Z,993.29
2023-01-06T07:47:43.958Z,993.31
2023-01-06T07:48:43.938Z,993.34
2023-01-06T07:49:43.920Z,993.29
2023-01-06T07:50:43.942Z,993.26
2023-01-06T07:51:43.926Z,993.28
2023-01-06T07:52:43.891Z,993.29
2023-01-06T07:53:43.878Z,993.19
2023-01-06T07:54:43.868Z,993.21
2023-01-06T07:55:43.876Z,993.18
2023-01-06T07:56:43.839Z,993.18
2023-01-06T07:57:43.840Z,993.16
2023-01-06T07:58:43.972Z,993.14
2023-01-06T07:59:43.817Z,993.18
2023-01-06T08:00:43.870Z,993.18
2023-01-06T08:01:44.188Z,993.16
2023-01-06T08:02:43.950Z,993.19
2023-01-06T08:03:43.938Z,993.23
2023-01-06T08:04:43.759Z,993.25
2023-01-06T08:05:43.751Z,993.25
2023-01-06T08:06:43.766Z,993.28
2023-01-06T08:07:43.761Z,993.23
2023-01-06T08:08:43.722Z,993.23
2023-01-06T08:09:43.722Z,993.22
2023-01-06T08:10:43.711Z,993.22
2023-01-06T08:11:43.687Z,993.15
2023-01-06T08:12:43.684Z,993.15
2023-01-06T08:13:44.087Z,993.11
2023-01-06T08:14:43.858Z,993.12
2023-01-06T08:15:43.686Z,993.05
2023-01-06T08:16:43.656Z,993.05
2023-01-06T08:17:43.758Z,993.07
2023-01-06T08:18:43.675Z,993.08
2023-01-06T08:19:43.823Z,993.15
2023-01-06T08:20:43.608Z,993.15
2023-01-06T08:21:43.593Z,993.21
2023-01-06T08:22:43.589Z,993.25
2023-01-06T08:23:43.572Z,993.22
2023-01-06T08:24:43.567Z,993.24
2023-01-06T08:25:43.553Z,993.25
2023-01-06T08:26:43.561Z,993.25
2023-01-06T08:27:43.544Z,993.26
2023-01-06T08:28:43.522Z,993.20
2023-01-06T08:29:43.518Z,993.17
2023-01-06T08:30:43.547Z,993.15
2023-01-06T08:31:43.704Z,993.15
2023-01-06T08:32:43.481Z,993.18
2023-01-06T08:33:43.659Z,993.20
2023-01-06T08:34:43.512Z,993.19
2023-01-06T08:35:43.482Z,993.20
2023-01-06T08:36:43.644Z,993.21
2023-01-06T08:37:43.480Z,993.19
2023-01-06T08:38:43.420Z,993.25
2023-01-06T08:39:43.406Z,993.26
2023-01-06T08:40:43.406Z,993.25
2023-01-06T08:41:43.387Z,993.28
2023-01-06T08:42:43.382Z,993.30
2023-01-06T08:43:44.959Z,993.28
2023-01-06T08:44:43.596Z,993.30
2023-01-06T08:45:43.570Z,993.26
2023-01-06T08:46:43.407Z,993.31
2023-01-06T08:47:43.336Z,993.34
2023-01-06T08:48:43.328Z,993.34
2023-01-06T08:49:43.658Z,993.36
2023-01-06T08:50:43.340Z,993.39
2023-01-06T08:51:43.347Z,993.35
2023-01-06T08:52:43.313Z,993.36
2023-01-06T08:53:43.289Z,993.38
2023-01-06T08:54:43.295Z,993.37
2023-01-06T08:55:43.299Z,993.34
2023-01-06T08:56:43.277Z,993.34
2023-01-06T08:57:43.248Z,993.35
2023-01-06T08:58:43.238Z,993.45
2023-01-06T08:59:43.230Z,993.41
2023-01-06T09:00:43.212Z,993.45
2023-01-06T09:01:43.390Z,993.44
2023-01-06T09:02:43.194Z,993.44
2023-01-06T09:03:43.465Z,993.47
2023-01-06T09:04:43.210Z,993.53
2023-01-06T09:05:43.333Z,993.55
2023-01-06T09:06:43.154Z,993.57
2023-01-06T09:07:43.181Z,993.51
2023-01-06T09:08:43.140Z,993.50
2023-01-06T09:09:43.119Z,993.54
2023-01-06T09:10:43.126Z,993.58
2023-01-06T09:11:43.108Z,993.64
2023-01-06T09:12:43.088Z,993.65
2023-01-06T09:13:43.092Z,993.65
2023-01-06T09:14:43.101Z,993.63
2023-01-06T09:15:43.079Z,993.65
2023-01-06T09:16:43.052Z,993.68
2023-01-06T09:17:43.046Z,993.73
2023-01-06T09:18:43.232Z,993.76
2023-01-06T09:19:43.058Z,993.67
2023-01-06T09:20:43.007Z,993.66
2023-01-06T09:21:43.140Z,993.66
2023-01-06T09:22:43.037Z,993.68
2023-01-06T09:23:43.032Z,993.62
2023-01-06T09:24:42.991Z,993.65
2023-01-06T09:25:42.992Z,993.63
2023-01-06T09:26:42.985Z,993.59
2023-01-06T09:27:43.190Z,993.53
2023-01-06T09:28:43.010Z,993.51
2023-01-06T09:29:42.937Z,993.53
2023-01-06T09:30:42.927Z,993.51
2023-01-06T09:31:42.926Z,993.55
2023-01-06T09:32:42.916Z,993.51
2023-01-06T09:33:42.955Z,993.55
2023-01-06T09:34:42.906Z,993.53
2023-01-06T09:35:43.069Z,993.57
2023-01-06T09:36:42.886Z,993.58
2023-01-06T09:37:42.981Z,993.59
2023-01-06T09:38:42.884Z,993.62
2023-01-06T09:39:42.853Z,993.62
2023-01-06T09:40:42.839Z,993.57
2023-01-06T09:41:42.863Z,993.58
2023-01-06T09:42:42.838Z,993.50
2023-01-06T09:43:42.791Z,993.56
2023-01-06T09:44:42.794Z,993.58
2023-01-06T09:45:42.799Z,993.58
2023-01-06T09:46:43.288Z,993.59
2023-01-06T09:47:42.778Z,993.57
2023-01-06T09:48:42.753Z,993.56
2023-01-06T09:49:42.740Z,993.51
2023-01-06T09:50:42.727Z,993.49
2023-01-06T09:51:42.740Z,993.49
2023-01-06T09:52:42.733Z,993.52
2023-01-06T09:53:42.883Z,993.51
2023-01-06T09:54:42.720Z,993.49
2023-01-06T09:55:42.720Z,993.54
2023-01-06T09:56:42.692Z,993.54
2023-01-06T09:57:42.683Z,993.53
2023-01-06T09:58:42.885Z,993.56
2023-01-06T09:59:42.655Z,993.60
2023-01-06T10:00:42.907Z,993.55
2023-01-06T10:01:42.934Z,993.55
2023-01-06T10:02:42.613Z,993.56
2023-01-06T10:03:42.634Z,993.55
2023-01-06T10:04:42.618Z,993.52
2023-01-06T10:05:42.637Z,993.52
2023-01-06T10:06:42.583Z,993.51
2023-01-06T10:07:42.582Z,993.52
2023-01-06T10:08:42.587Z,993.48
2023-01-06T10:09:42.687Z,993.52
2023-01-06T10:10:42.736Z,993.46
2023-01-06T10:11:42.537Z,993.47
2023-01-06T10:12:42.567Z,993.48
2023-01-06T10:13:42.539Z,993.55
2023-01-06T10:14:42.506Z,993.52
2023-01-06T10:15:42.509Z,993.64
2023-01-06T10:16:42.480Z,993.60
2023-01-06T10:17:42.515Z,993.62
2023-01-06T10:18:42.508Z,993.60
2023-01-06T10:19:42.481Z,993.58
2023-01-06T10:20:42.452Z,993.61
2023-01-06T10:21:42.457Z,993.61
2023-01-06T10:22:42.468Z,993.65
2023-01-06T10:23:42.426Z,993.68
2023-01-06T10:24:42.418Z,993.79
2023-01-06T10:25:42.512Z,993.79
2023-01-06T10:26:42.399Z,993.86
2023-01-06T10:27:42.409Z,993.89
2023-01-06T10:28:42.391Z,993.84
2023-01-06T10:29:42.384Z,993.92
2023-01-06T10:30:44.328Z,993.90
2023-01-06T10:31:42.453Z,993.87
2023-01-06T10:32:42.969Z,993.85
2023-01-06T10:33:42.374Z,993.87
2023-01-06T10:34:42.332Z,993.82
2023-01-06T10:35:42.509Z,993.80
2023-01-06T10:36:42.298Z,993.85
2023-01-06T10:37:42.323Z,993.81
2023-01-06T10:38:42.303Z,993.80
2023-01-06T10:39:42.461Z,993.80
2023-01-06T10:40:42.256Z,993.74
2023-01-06T10:41:42.366Z,993.72
2023-01-06T10:42:42.257Z,993.81
2023-01-06T10:43:42.344Z,993.78
2023-01-06T10:44:42.224Z,993.84
2023-01-06T10:45:42.203Z,993.77
2023-01-06T10:46:42.248Z,993.72
2023-01-06T10:47:42.303Z,993.74
2023-01-06T10:48:42.213Z,993.72
2023-01-06T10:49:42.202Z,993.80
2023-01-06T10:50:42.180Z,993.81
2023-01-06T10:51:42.159Z,993.81
2023-01-06T10:52:42.148Z,993.81
2023-01-06T10:53:42.434Z,993.85
2023-01-06T10:54:42.392Z,993.87
2023-01-06T10:55:42.135Z,993.84
2023-01-06T10:56:42.321Z,993.89
2023-01-06T10:57:42.303Z,993.84
2023-01-06T10:58:42.127Z,993.83
2023-01-06T10:59:42.102Z,993.79
2023-01-06T11:00:42.181Z,993.74
2023-01-06T11:01:42.318Z,993.75
2023-01-06T11:02:42.314Z,993.74
2023-01-06T11:03:42.144Z,993.71
2023-01-06T11:04:42.044Z,993.73
2023-01-06T11:05:42.060Z,993.76
2023-01-06T11:06:42.034Z,993.71
2023-01-06T11:07:42.162Z,993.72
2023-01-06T11:08:42.008Z,993.68
2023-01-06T11:09:42.054Z,993.74
2023-01-06T11:10:42.019Z,993.76
2023-01-06T11:11:41.966Z,993.74
2023-01-06T11:12:42.008Z,993.71
2023-01-06T11:13:42.086Z,993.70
2023-01-06T11:14:41.956Z,993.64
2023-01-06T11:15:41.938Z,993.61
2023-01-06T11:16:41.977Z,993.56
2023-01-06T11:17:41.919Z,993.58
2023-01-06T11:18:41.902Z,993.57
2023-01-06T11:19:41.915Z,993.57
2023-01-06T11:20:41.896Z,993.57
2023-01-06T11:21:41.883Z,993.50
2023-01-06T11:22:41.897Z,993.55
2023-01-06T11:23:41.955Z,993.53
2023-01-06T11:24:41.851Z,993.59
2023-01-06T11:25:41.853Z,993.57
2023-01-06T11:26:41.851Z,993.61
2023-01-06T11:27:41.877Z,993.60
2023-01-06T11:28:41.824Z,993.59
2023-01-06T11:29:42.004Z,993.54
2023-01-06T11:30:41.826Z,993.51
2023-01-06T11:31:41.825Z,993.52
2023-01-06T11:32:41.810Z,993.50
2023-01-06T11:33:41.785Z,993.50
2023-01-06T11:34:41.977Z,993.47
2023-01-06T11:35:41.976Z,993.52
2023-01-06T11:36:41.771Z,993.52
2023-01-06T11:37:41.734Z,993.52
2023-01-06T11:38:41.844Z,993.51
2023-01-06T11:39:42.087Z,993.51
2023-01-06T11:40:41.754Z,993.49
2023-01-06T11:41:41.698Z,993.40
2023-01-06T11:43:41.717Z,993.38
2023-01-06T11:44:41.770Z,993.44
2023-01-06T11:45:42.065Z,993.44
2023-01-06T11:46:41.663Z,993.45
2023-01-06T11:47:41.651Z,993.42
2023-01-06T11:48:41.663Z,993.42
2023-01-06T11:49:41.635Z,993.39
2023-01-06T11:50:41.620Z,993.39
2023-01-06T11:51:41.630Z,993.36
2023-01-06T11:52:41.605Z,993.34
2023-01-06T11:53:41.583Z,993.32
2023-01-06T11:54:41.586Z,993.28
2023-01-06T11:55:41.572Z,993.29
2023-01-06T11:56:41.791Z,993.29
2023-01-06T11:57:41.560Z,993.23
2023-01-06T11:58:41.549Z,993.18
2023-01-06T11:59:41.580Z,993.11
2023-01-06T12:00:41.541Z,993.13
2023-01-06T12:01:41.791Z,993.00
2023-01-06T12:02:41.557Z,993.02
2023-01-06T12:03:41.875Z,992.93
2023-01-06T12:04:41.533Z,992.91
2023-01-06T12:05:41.523Z,992.92
2023-01-06T12:06:41.478Z,992.89
2023-01-06T12:07:41.504Z,992.86
2023-01-06T12:08:41.462Z,992.95
2023-01-06T12:09:42.603Z,992.91
2023-01-06T12:10:41.455Z,992.93
2023-01-06T12:11:41.430Z,992.90
2023-01-06T12:12:41.412Z,992.97
2023-01-06T12:13:44.896Z,992.91
2023-01-06T12:14:41.421Z,992.97
2023-01-06T12:15:41.395Z,993.08
2023-01-06T12:16:41.543Z,993.06
2023-01-06T12:17:41.632Z,993.01
2023-01-06T12:18:41.362Z,993.01
2023-01-06T12:19:41.384Z,992.97
2023-01-06T12:20:41.552Z,993.03
2023-01-06T12:21:41.363Z,993.00
2023-01-06T12:22:41.363Z,992.97
2023-01-06T12:23:41.536Z,992.94
2023-01-06T12:24:41.313Z,992.96
2023-01-06T12:25:41.287Z,992.92
2023-01-06T12:26:41.298Z,992.92
2023-01-06T12:27:41.309Z,992.92
2023-01-06T12:28:41.329Z,992.90
2023-01-06T12:29:41.479Z,992.95